Time;durP1;ratioP1;P1;durP2;ratioP2;P2;SDS_P1;SDS_P2;PMS_P1;PMS_P2;Temp;Humidity;BMP_temperature;BMP_pressure;BME280_temperature;BME280_humidity;BME280_pressure;Samples;Min_cycle;Max_cycle;Signal;HPM_P1;HPM_P2
2023/07/17 00:00:12;;;;;;;9.95;4.20;;;21.90;88.70;;;;;;4911058;28;20222;-66
2023/07/17 00:02:39;;;;;;;8.82;3.72;;;21.80;86.90;;;;;;4908547;29;20206;-66
2023/07/17 00:05:05;;;;;;;4.30;3.35;;;22.00;88.00;;;;;;4908085;29;20767;-66
2023/07/17 00:07:31;;;;;;;5.63;4.05;;;22.00;88.40;;;;;;4923707;28;20211;-66
2023/07/17 00:09:57;;;;;;;6.18;3.70;;;22.00;88.60;;;;;;4924307;29;20720;-66
2023/07/17 00:12:22;;;;;;;6.33;4.37;;;22.10;88.10;;;;;;4912438;28;20242;-65
2023/07/17 00:14:48;;;;;;;3.35;3.05;;;22.10;87.20;;;;;;4908764;28;20199;-66
2023/07/17 00:17:14;;;;;;;6.30;3.72;;;22.10;87.00;;;;;;4923192;29;20582;-65
2023/07/17 00:19:39;;;;;;;4.63;3.60;;;22.10;88.20;;;;;;4912404;29;20277;-67
2023/07/17 00:22:08;;;;;;;5.30;3.97;;;22.10;88.00;;;;;;4922302;28;20759;-68
2023/07/17 00:24:34;;;;;;;5.07;3.28;;;22.20;87.40;;;;;;4923080;29;20194;-68
2023/07/17 00:26:59;;;;;;;6.15;3.83;;;22.20;87.80;;;;;;4918376;29;20313;-67
2023/07/17 00:29:28;;;;;;;3.75;3.03;;;22.20;88.20;;;;;;4920598;29;20566;-66
2023/07/17 00:31:54;;;;;;;3.85;3.15;;;22.20;87.40;;;;;;4920861;28;20733;-67
2023/07/17 00:34:20;;;;;;;4.75;3.10;;;22.20;83.70;;;;;;4919069;28;20962;-67
2023/07/17 00:36:46;;;;;;;3.30;3.03;;;22.20;82.70;;;;;;4919837;28;20203;-67
2023/07/17 00:39:15;;;;;;;4.35;2.88;;;22.20;81.50;;;;;;4924924;28;20579;-67
2023/07/17 00:41:41;;;;;;;3.37;3.07;;;22.20;81.60;;;;;;4929053;28;20225;-66
2023/07/17 00:44:06;;;;;;;9.98;3.45;;;22.20;81.20;;;;;;4922893;29;20210;-66
2023/07/17 00:46:34;;;;;;;2.78;2.55;;;22.20;80.10;;;;;;4926538;29;20205;-66
2023/07/17 00:49:01;;;;;;;5.55;2.72;;;22.20;81.10;;;;;;4924922;28;20565;-66
2023/07/17 00:51:26;;;;;;;3.63;3.30;;;22.20;83.10;;;;;;4927344;29;20675;-66
2023/07/17 00:53:52;;;;;;;3.50;3.17;;;22.20;84.70;;;;;;4928122;29;20231;-67
2023/07/17 00:56:18;;;;;;;5.82;2.85;;;22.20;84.90;;;;;;4923592;29;20203;-66
2023/07/17 00:58:44;;;;;;;4.83;3.33;;;22.20;84.50;;;;;;4928213;28;20680;-66
2023/07/17 01:01:12;;;;;;;5.15;3.35;;;22.20;83.90;;;;;;4924940;29;20923;-67
2023/07/17 01:03:38;;;;;;;4.80;3.08;;;22.20;83.60;;;;;;4920710;28;20414;-68
2023/07/17 01:06:04;;;;;;;3.75;3.35;;;22.20;84.60;;;;;;4922359;29;20203;-67
2023/07/17 01:08:30;;;;;;;4.72;3.63;;;22.10;85.00;;;;;;4924404;29;20225;-66
2023/07/17 01:10:56;;;;;;;6.68;3.60;;;22.20;85.00;;;;;;4924441;28;20209;-64
2023/07/17 01:13:21;;;;;;;5.33;3.67;;;22.30;84.50;;;;;;4922452;29;20195;-64
2023/07/17 01:15:47;;;;;;;3.57;3.27;;;22.30;84.60;;;;;;4907893;28;20204;-65
2023/07/17 01:18:13;;;;;;;5.67;3.13;;;22.30;84.10;;;;;;4921519;29;20204;-65
2023/07/17 01:20:39;;;;;;;3.33;3.03;;;22.30;83.60;;;;;;4923569;28;20195;-64
2023/07/17 01:23:04;;;;;;;6.00;3.33;;;22.20;83.00;;;;;;4915544;28;20682;-64
2023/07/17 01:25:30;;;;;;;4.07;3.35;;;22.30;82.90;;;;;;4920715;29;20765;-65
2023/07/17 01:27:56;;;;;;;4.13;3.40;;;22.30;83.20;;;;;;4919618;29;20219;-65
2023/07/17 01:30:21;;;;;;;4.70;3.87;;;22.30;83.90;;;;;;4912720;29;20318;-66
2023/07/17 01:32:47;;;;;;;3.60;3.30;;;22.30;83.90;;;;;;4916809;29;20196;-67
2023/07/17 01:35:13;;;;;;;4.83;3.47;;;22.30;84.60;;;;;;4917079;29;21255;-66
2023/07/17 01:37:38;;;;;;;3.45;3.15;;;22.20;85.70;;;;;;4932400;28;20196;-66
2023/07/17 01:40:05;;;;;;;4.50;3.50;;;22.10;86.70;;;;;;4918011;28;20192;-66
2023/07/17 01:42:30;;;;;;;4.77;3.53;;;22.10;87.00;;;;;;4914777;28;21173;-66
2023/07/17 01:44:56;;;;;;;3.90;3.50;;;22.10;87.10;;;;;;4915896;29;20872;-67
2023/07/17 01:47:21;;;;;;;6.90;3.70;;;22.10;87.30;;;;;;4915185;29;20211;-67
2023/07/17 01:49:47;;;;;;;4.97;3.37;;;22.10;87.20;;;;;;4923974;28;20612;-67
2023/07/17 01:52:12;;;;;;;4.35;3.38;;;22.10;87.30;;;;;;4923755;28;20206;-67
2023/07/17 01:54:38;;;;;;;6.05;4.15;;;22.10;87.90;;;;;;4914903;28;20203;-66
2023/07/17 01:57:04;;;;;;;5.87;3.70;;;22.10;87.30;;;;;;4915205;29;20575;-66
2023/07/17 01:59:30;;;;;;;4.20;3.50;;;22.10;86.00;;;;;;4919349;29;20306;-66
2023/07/17 02:01:56;;;;;;;6.33;3.87;;;22.00;86.20;;;;;;4927486;28;20289;-67
2023/07/17 02:04:22;;;;;;;3.57;3.27;;;21.70;89.60;;;;;;4926266;28;20232;-66
2023/07/17 02:06:47;;;;;;;3.90;3.60;;;21.30;91.30;;;;;;4923511;29;20217;-71
2023/07/17 02:09:13;;;;;;;6.63;4.13;;;21.20;91.80;;;;;;4926944;29;20226;-76
2023/07/17 02:11:38;;;;;;;4.10;3.77;;;21.40;90.90;;;;;;4926841;29;20198;-76
2023/07/17 02:14:04;;;;;;;4.33;4.00;;;21.40;90.70;;;;;;4926404;29;20575;-64
2023/07/17 02:16:30;;;;;;;5.53;4.03;;;21.50;91.20;;;;;;4923063;28;20209;-64
2023/07/17 02:18:56;;;;;;;5.87;4.60;;;21.40;91.70;;;;;;4922905;28;20236;-65
2023/07/17 02:21:21;;;;;;;5.93;4.10;;;21.40;91.70;;;;;;4924791;28;20645;-64
2023/07/17 02:23:47;;;;;;;4.67;3.93;;;21.40;91.10;;;;;;4924756;28;20268;-64
2023/07/17 02:26:12;;;;;;;3.70;3.40;;;21.30;92.70;;;;;;4923958;29;20237;-65
2023/07/17 02:28:38;;;;;;;7.07;4.03;;;21.20;93.00;;;;;;4924955;28;20664;-65
2023/07/17 02:31:03;;;;;;;5.23;3.87;;;21.20;94.10;;;;;;4920045;28;20191;-65
2023/07/17 02:33:29;;;;;;;5.83;3.93;;;21.10;93.40;;;;;;4929697;28;20310;-67
2023/07/17 02:35:54;;;;;;;5.60;3.97;;;21.20;93.80;;;;;;4927110;29;20205;-65
2023/07/17 02:38:20;;;;;;;5.10;4.30;;;21.10;94.50;;;;;;4925804;29;20713;-66
2023/07/17 02:40:45;;;;;;;4.23;3.80;;;21.10;94.60;;;;;;4924624;29;20417;-66
2023/07/17 02:43:11;;;;;;;4.70;3.13;;;21.10;95.90;;;;;;4924892;29;20218;-64
2023/07/17 02:45:37;;;;;;;4.13;3.73;;;21.00;95.20;;;;;;4921870;28;20208;-65
2023/07/17 02:48:03;;;;;;;6.50;3.87;;;21.10;94.80;;;;;;4924042;28;20990;-65
2023/07/17 02:50:29;;;;;;;7.97;4.30;;;20.80;95.60;;;;;;4924058;28;20202;-64
2023/07/17 02:52:55;;;;;;;4.93;4.53;;;20.70;95.80;;;;;;4923672;29;20813;-64
2023/07/17 02:55:24;;;;;;;6.47;3.90;;;20.90;96.20;;;;;;4923695;28;20256;-65
2023/07/17 02:57:50;;;;;;;4.47;3.87;;;20.90;96.00;;;;;;4923462;29;20233;-65
2023/07/17 03:00:17;;;;;;;6.63;4.60;;;20.90;96.10;;;;;;4921975;29;20275;-65
2023/07/17 03:02:43;;;;;;;6.97;4.33;;;20.90;97.70;;;;;;4920916;28;20218;-65
2023/07/17 03:05:10;;;;;;;5.47;4.73;;;20.80;97.50;;;;;;4922860;28;20211;-64
2023/07/17 03:07:46;;;;;;;4.07;3.73;;;20.70;97.10;;;;;;4916268;28;20772;-64
2023/07/17 03:10:13;;;;;;;6.00;4.07;;;20.80;97.20;;;;;;4926548;28;20365;-65
2023/07/17 03:12:38;;;;;;;5.07;4.33;;;20.70;98.10;;;;;;4926483;28;20213;-65
2023/07/17 03:15:05;;;;;;;4.60;4.20;;;20.50;98.50;;;;;;4923175;29;20221;-65
2023/07/17 03:17:32;;;;;;;5.87;3.90;;;20.50;99.10;;;;;;4929688;28;20280;-66
2023/07/17 03:19:58;;;;;;;6.43;4.53;;;20.50;99.20;;;;;;4923649;29;20208;-65
2023/07/17 03:22:24;;;;;;;7.87;4.53;;;20.60;98.80;;;;;;4930283;28;20267;-68
2023/07/17 03:24:49;;;;;;;5.83;4.53;;;20.60;98.50;;;;;;4918680;29;20202;-69
2023/07/17 03:27:15;;;;;;;6.67;4.93;;;20.60;98.30;;;;;;4918455;29;20732;-66
2023/07/17 03:29:40;;;;;;;7.87;4.50;;;20.50;98.40;;;;;;4925051;29;20207;-66
2023/07/17 03:32:07;;;;;;;4.40;3.83;;;20.40;98.50;;;;;;4925476;28;20206;-67
2023/07/17 03:34:32;;;;;;;7.00;4.87;;;20.40;99.00;;;;;;4925087;28;20213;-67
2023/07/17 03:36:58;;;;;;;8.63;4.60;;;20.40;99.10;;;;;;4925346;28;20205;-67
2023/07/17 03:39:23;;;;;;;4.50;4.10;;;20.30;98.90;;;;;;4926403;29;20209;-67
2023/07/17 03:41:49;;;;;;;4.10;3.80;;;20.30;98.70;;;;;;4923379;29;20209;-66
2023/07/17 03:44:14;;;;;;;4.20;3.80;;;20.30;99.00;;;;;;4924368;28;20216;-67
2023/07/17 03:46:40;;;;;;;4.23;3.53;;;20.20;99.40;;;;;;4922747;29;20213;-67
2023/07/17 03:49:05;;;;;;;4.80;3.93;;;20.20;99.00;;;;;;4920600;29;20201;-67
2023/07/17 03:51:31;;;;;;;4.23;3.70;;;20.30;97.80;;;;;;4918733;28;20248;-65
2023/07/17 03:53:56;;;;;;;4.70;4.20;;;20.30;97.10;;;;;;4927569;28;20569;-65
2023/07/17 03:56:22;;;;;;;6.50;4.57;;;20.30;97.10;;;;;;4924575;29;20560;-65
2023/07/17 03:58:47;;;;;;;5.43;3.80;;;20.30;97.00;;;;;;4925945;28;20649;-65
2023/07/17 04:01:13;;;;;;;7.87;4.73;;;20.30;96.90;;;;;;4963987;28;20583;-65
2023/07/17 04:03:39;;;;;;;4.37;3.97;;;20.30;97.10;;;;;;4919019;28;20216;-65
2023/07/17 04:06:04;;;;;;;6.13;3.97;;;20.30;97.10;;;;;;4918214;29;20310;-65
2023/07/17 04:08:31;;;;;;;6.40;4.70;;;20.20;97.20;;;;;;4920941;29;20233;-66
2023/07/17 04:10:56;;;;;;;4.80;4.33;;;20.10;97.20;;;;;;4925225;28;20250;-66
2023/07/17 04:13:22;;;;;;;6.27;4.63;;;20.00;97.10;;;;;;4922332;28;20209;-66
2023/07/17 04:15:48;;;;;;;4.80;4.40;;;19.90;97.90;;;;;;4924230;28;20664;-66
2023/07/17 04:18:14;;;;;;;4.97;3.93;;;19.90;97.80;;;;;;4928288;28;20226;-66
2023/07/17 04:20:40;;;;;;;5.00;4.53;;;19.90;97.20;;;;;;4917829;29;20285;-65
2023/07/17 04:23:05;;;;;;;7.73;3.87;;;20.00;96.60;;;;;;4926617;28;20689;-65
2023/07/17 04:25:32;;;;;;;5.83;4.17;;;19.90;96.40;;;;;;4925273;29;20233;-69
2023/07/17 04:27:57;;;;;;;5.43;4.13;;;19.90;97.30;;;;;;4926515;28;20225;-69
2023/07/17 04:30:23;;;;;;;6.87;5.00;;;19.90;97.10;;;;;;4924818;28;20265;-69
2023/07/17 04:32:51;;;;;;;6.63;4.30;;;19.90;97.20;;;;;;4923750;28;20262;-68
2023/07/17 04:35:17;;;;;;;9.80;4.67;;;19.90;97.60;;;;;;4923881;28;20568;-69
2023/07/17 04:37:42;;;;;;;6.73;5.00;;;19.80;98.30;;;;;;4922275;28;20215;-68
2023/07/17 04:40:08;;;;;;;6.70;4.50;;;19.80;98.10;;;;;;4924048;29;20676;-69
2023/07/17 04:42:34;;;;;;;6.50;4.67;;;19.80;98.20;;;;;;4924999;29;20236;-67
2023/07/17 04:44:59;;;;;;;5.43;4.53;;;19.80;98.40;;;;;;4923264;29;20623;-68
2023/07/17 04:47:25;;;;;;;4.77;3.97;;;19.80;98.70;;;;;;4921859;28;20249;-68
2023/07/17 04:49:53;;;;;;;6.43;4.87;;;19.90;98.50;;;;;;4921375;28;20215;-68
2023/07/17 04:52:18;;;;;;;5.23;4.43;;;19.90;99.00;;;;;;4918276;28;20217;-68
2023/07/17 04:54:44;;;;;;;5.00;4.13;;;20.00;98.30;;;;;;4922262;29;20612;-68
2023/07/17 04:57:09;;;;;;;5.93;4.53;;;20.00;98.10;;;;;;4921887;28;20203;-68
2023/07/17 04:59:35;;;;;;;5.07;4.47;;;20.00;98.90;;;;;;4921062;28;20237;-67
2023/07/17 05:02:00;;;;;;;5.33;4.70;;;20.00;99.80;;;;;;4919450;28;20292;-68
2023/07/17 05:04:26;;;;;;;7.60;5.00;;;19.90;99.20;;;;;;4918734;29;20211;-67
2023/07/17 05:06:51;;;;;;;6.43;4.60;;;20.00;99.20;;;;;;4925030;29;20280;-68
2023/07/17 05:09:18;;;;;;;7.17;4.53;;;20.20;98.60;;;;;;4923186;29;20232;-69
2023/07/17 05:11:44;;;;;;;4.77;4.30;;;20.30;98.10;;;;;;4916898;28;20198;-66
2023/07/17 05:14:09;;;;;;;6.80;4.63;;;20.30;98.00;;;;;;4921358;28;20223;-65
2023/07/17 05:16:35;;;;;;;5.70;4.50;;;20.30;97.60;;;;;;4922720;28;20571;-66
2023/07/17 05:19:00;;;;;;;5.97;5.23;;;20.30;97.50;;;;;;4926284;29;20201;-66
2023/07/17 05:21:26;;;;;;;5.67;4.83;;;20.30;97.80;;;;;;4928512;28;20551;-66
2023/07/17 05:23:52;;;;;;;4.77;4.20;;;20.30;98.10;;;;;;4924071;29;20233;-65
2023/07/17 05:26:17;;;;;;;6.60;4.90;;;20.30;98.00;;;;;;4924639;28;20251;-65
2023/07/17 05:28:42;;;;;;;7.03;4.87;;;20.30;97.40;;;;;;4924177;28;20300;-70
2023/07/17 05:31:09;;;;;;;6.53;4.13;;;20.30;97.70;;;;;;4918971;28;20214;-69
2023/07/17 05:33:35;;;;;;;5.93;4.30;;;20.40;97.40;;;;;;4920147;29;20214;-67
2023/07/17 05:36:00;;;;;;;5.87;4.93;;;20.40;97.30;;;;;;4929159;29;20214;-67
2023/07/17 05:38:25;;;;;;;8.80;5.13;;;20.50;97.50;;;;;;4926937;29;20554;-67
2023/07/17 05:41:02;;;;;;;4.80;4.33;;;20.50;96.90;;;;;;4930580;28;20752;-67
2023/07/17 05:43:29;;;;;;;4.13;3.80;;;20.50;97.30;;;;;;4929574;28;20574;-64
2023/07/17 05:45:55;;;;;;;8.27;5.73;;;20.50;96.80;;;;;;4933507;28;20640;-64
2023/07/17 05:48:20;;;;;;;5.57;5.03;;;20.60;97.00;;;;;;4926415;28;20296;-64
2023/07/17 05:50:46;;;;;;;8.03;4.80;;;20.50;96.30;;;;;;4925284;28;21005;-62
2023/07/17 05:53:11;;;;;;;7.10;5.20;;;20.50;95.80;;;;;;4924220;28;20196;-65
2023/07/17 05:55:37;;;;;;;5.70;4.67;;;20.50;96.10;;;;;;4925862;29;20205;-65
2023/07/17 05:58:02;;;;;;;5.57;3.80;;;20.50;95.70;;;;;;4926816;29;20226;-66
2023/07/17 06:00:28;;;;;;;4.90;4.40;;;20.50;95.90;;;;;;4924486;29;20206;-66
2023/07/17 06:02:54;;;;;;;8.20;4.63;;;20.60;95.60;;;;;;4923245;29;20252;-66
2023/07/17 06:05:19;;;;;;;8.13;4.40;;;20.70;95.60;;;;;;4926090;28;20203;-67
2023/07/17 06:07:44;;;;;;;8.37;5.60;;;20.70;96.10;;;;;;4923685;29;20663;-65
2023/07/17 06:10:12;;;;;;;6.73;4.97;;;20.70;95.40;;;;;;4926378;29;20239;-69
2023/07/17 06:12:39;;;;;;;7.63;5.57;;;20.80;95.40;;;;;;4926923;29;20218;-63
2023/07/17 06:15:06;;;;;;;6.90;4.93;;;20.90;95.50;;;;;;4921990;28;20295;-65
2023/07/17 06:17:31;;;;;;;6.60;4.30;;;20.90;95.30;;;;;;4924477;28;20420;-65
2023/07/17 06:19:57;;;;;;;4.70;4.17;;;21.10;94.70;;;;;;4925941;29;20742;-65
2023/07/17 06:22:22;;;;;;;7.07;5.40;;;21.10;95.40;;;;;;4930477;28;20676;-65
2023/07/17 06:24:49;;;;;;;7.03;4.07;;;21.20;94.40;;;;;;4925458;29;20234;-69
2023/07/17 06:27:14;;;;;;;7.13;4.43;;;21.50;94.20;;;;;;4922046;28;20430;-70
2023/07/17 06:29:40;;;;;;;9.43;4.53;;;21.50;93.50;;;;;;4921895;28;20806;-71
2023/07/17 06:32:06;;;;;;;6.50;4.50;;;21.60;93.00;;;;;;4922274;29;20343;-73
2023/07/17 06:34:32;;;;;;;5.77;4.87;;;21.70;92.80;;;;;;4920901;28;20208;-73
2023/07/17 06:36:57;;;;;;;4.32;3.90;;;21.80;92.90;;;;;;4929991;28;20202;-80
2023/07/17 06:39:23;;;;;;;5.97;4.33;;;21.90;92.40;;;;;;4924209;29;20202;-73
2023/07/17 06:41:51;;;;;;;6.13;4.00;;;21.90;92.10;;;;;;4932531;28;20224;-73
2023/07/17 06:44:17;;;;;;;4.90;3.73;;;21.90;92.40;;;;;;4931714;28;20246;-74
2023/07/17 06:46:42;;;;;;;6.50;4.27;;;21.80;93.10;;;;;;4923666;29;20294;-73
2023/07/17 06:49:07;;;;;;;6.23;4.37;;;21.70;93.30;;;;;;4916252;28;20260;-69
2023/07/17 06:51:33;;;;;;;6.33;4.33;;;21.70;93.20;;;;;;4914927;29;20681;-68
2023/07/17 06:53:58;;;;;;;5.03;4.50;;;21.70;93.30;;;;;;4919850;29;20225;-70
2023/07/17 06:56:24;;;;;;;5.93;4.83;;;21.70;93.40;;;;;;4980725;28;20206;-71
2023/07/17 06:58:49;;;;;;;4.87;4.33;;;21.70;94.20;;;;;;4909907;29;20670;-68
2023/07/17 07:01:15;;;;;;;4.70;4.30;;;21.80;92.70;;;;;;4925901;29;20288;-70
2023/07/17 07:03:43;;;;;;;8.83;5.27;;;21.80;92.00;;;;;;4924599;29;20569;-71
2023/07/17 07:06:08;;;;;;;5.00;4.40;;;21.80;91.70;;;;;;4933918;28;20202;-72
2023/07/17 07:08:34;;;;;;;5.17;4.37;;;21.70;91.80;;;;;;4927049;28;20987;-69
2023/07/17 07:11:02;;;;;;;5.03;4.53;;;21.90;92.60;;;;;;4922758;28;20435;-73
2023/07/17 07:13:27;;;;;;;6.23;4.77;;;21.90;91.00;;;;;;4925874;29;20195;-71
2023/07/17 07:15:53;;;;;;;4.77;4.17;;;21.90;90.70;;;;;;4927544;28;20336;-71
2023/07/17 07:18:19;;;;;;;6.03;4.10;;;21.80;91.40;;;;;;4928581;28;20296;-71
2023/07/17 07:20:46;;;;;;;6.33;3.70;;;22.10;90.50;;;;;;4918799;28;20203;-71
2023/07/17 07:23:11;;;;;;;6.57;4.80;;;22.20;90.60;;;;;;4922790;29;20235;-72
2023/07/17 07:25:37;;;;;;;6.27;5.17;;;22.10;91.20;;;;;;4921683;29;20215;-72
2023/07/17 07:28:03;;;;;;;9.63;5.07;;;22.00;90.90;;;;;;4928376;29;20222;-68
2023/07/17 07:30:29;;;;;;;5.00;4.60;;;22.20;89.90;;;;;;4927706;28;20454;-71
2023/07/17 07:32:55;;;;;;;8.43;5.00;;;22.30;90.20;;;;;;4918047;28;20761;-69
2023/07/17 07:35:21;;;;;;;5.90;4.30;;;22.40;89.50;;;;;;4925068;28;20217;-75
2023/07/17 07:37:46;;;;;;;4.50;4.10;;;22.40;88.20;;;;;;4925968;29;20201;-74
2023/07/17 07:40:12;;;;;;;11.55;5.03;;;22.20;90.00;;;;;;4924664;29;20572;-70
2023/07/17 07:42:44;;;;;;;5.80;4.60;;;22.30;89.50;;;;;;4924881;29;20259;-71
2023/07/17 07:45:11;;;;;;;4.83;3.80;;;22.50;88.90;;;;;;4916666;28;20235;-70
2023/07/17 07:47:37;;;;;;;4.50;4.05;;;22.60;89.00;;;;;;4992753;28;20210;-70
2023/07/17 07:50:03;;;;;;;6.30;4.32;;;22.70;87.70;;;;;;4926001;28;20219;-71
2023/07/17 07:52:29;;;;;;;4.35;3.95;;;22.80;86.20;;;;;;4930062;28;20206;-77
2023/07/17 07:54:54;;;;;;;6.80;4.53;;;22.90;84.50;;;;;;4913895;28;20203;-71
2023/07/17 07:57:20;;;;;;;6.70;3.65;;;22.90;86.80;;;;;;4926189;29;20237;-69
2023/07/17 07:59:46;;;;;;;5.13;4.30;;;23.00;83.30;;;;;;4912710;28;20211;-71
2023/07/17 08:02:12;;;;;;;5.97;4.57;;;23.00;83.70;;;;;;4909203;29;20901;-69
2023/07/17 08:04:38;;;;;;;8.18;4.40;;;23.00;83.20;;;;;;4908341;29;20280;-70
2023/07/17 08:07:04;;;;;;;5.37;4.23;;;23.00;85.60;;;;;;4919380;28;20723;-70
2023/07/17 08:09:30;;;;;;;7.23;4.37;;;23.00;85.00;;;;;;4924855;28;20424;-69
2023/07/17 08:11:55;;;;;;;4.87;3.40;;;23.10;84.30;;;;;;4923502;29;20207;-73
2023/07/17 08:14:21;;;;;;;7.13;4.25;;;23.20;81.70;;;;;;4911962;28;20661;-68
2023/07/17 08:16:47;;;;;;;7.13;4.03;;;23.20;82.20;;;;;;4918333;29;20207;-70
2023/07/17 08:19:12;;;;;;;6.00;4.23;;;23.10;80.30;;;;;;4926010;28;20688;-67
2023/07/17 08:21:38;;;;;;;4.57;3.60;;;23.10;80.40;;;;;;4926365;29;20230;-71
2023/07/17 08:24:04;;;;;;;6.03;3.80;;;23.10;80.00;;;;;;4926640;29;20231;-72
2023/07/17 08:26:29;;;;;;;5.95;3.50;;;23.10;80.20;;;;;;4928158;28;20203;-73
2023/07/17 08:28:55;;;;;;;8.20;4.27;;;23.10;80.60;;;;;;4911551;29;20265;-70
2023/07/17 08:31:20;;;;;;;5.70;3.85;;;23.10;80.70;;;;;;4930660;28;20203;-70
2023/07/17 08:33:46;;;;;;;4.30;3.90;;;23.20;81.70;;;;;;4926067;29;20923;-72
2023/07/17 08:36:11;;;;;;;6.83;4.30;;;23.30;81.20;;;;;;4923128;28;20207;-81
2023/07/17 08:38:37;;;;;;;7.65;4.20;;;23.40;80.90;;;;;;4916491;29;20689;-73
2023/07/17 08:41:03;;;;;;;5.40;4.60;;;23.30;80.20;;;;;;4913075;29;20202;-73
2023/07/17 08:43:29;;;;;;;4.13;3.40;;;23.40;78.90;;;;;;4925885;28;20325;-73
2023/07/17 08:45:55;;;;;;;4.63;3.97;;;23.60;79.00;;;;;;4933038;28;20566;-72
2023/07/17 08:48:22;;;;;;;4.57;3.90;;;23.50;77.40;;;;;;4934683;28;20237;-71
2023/07/17 08:50:49;;;;;;;4.55;3.50;;;23.50;77.00;;;;;;4925284;28;20207;-72
2023/07/17 08:53:17;;;;;;;5.00;3.77;;;23.70;76.40;;;;;;4916612;29;20544;-73
2023/07/17 08:55:43;;;;;;;9.97;4.10;;;23.70;76.20;;;;;;4921511;28;20270;-69
2023/07/17 08:58:10;;;;;;;7.57;3.80;;;23.80;76.60;;;;;;4928258;28;20820;-73
2023/07/17 09:00:36;;;;;;;9.80;4.90;;;23.90;76.20;;;;;;4922484;29;20199;-70
2023/07/17 09:03:02;;;;;;;5.38;4.38;;;23.90;75.60;;;;;;4926579;29;20206;-71
2023/07/17 09:05:28;;;;;;;5.53;3.63;;;23.90;75.40;;;;;;4924329;28;20207;-69
2023/07/17 09:07:53;;;;;;;5.70;3.92;;;23.90;75.00;;;;;;4920784;29;20814;-75
2023/07/17 09:10:20;;;;;;;7.88;3.53;;;23.90;75.00;;;;;;4915069;29;20288;-75
2023/07/17 09:12:49;;;;;;;6.47;4.38;;;24.00;74.10;;;;;;4915796;28;21364;-72
2023/07/17 09:15:15;;;;;;;5.15;3.20;;;24.00;75.40;;;;;;4917625;28;20356;-79
2023/07/17 09:17:41;;;;;;;5.82;3.70;;;24.20;73.70;;;;;;4918193;29;20852;-73
2023/07/17 09:20:11;;;;;;;6.70;3.70;;;24.20;77.50;;;;;;4933222;28;20283;-73
2023/07/17 09:22:40;;;;;;;5.73;3.57;;;23.60;77.30;;;;;;4919011;28;20744;-73
2023/07/17 09:25:07;;;;;;;5.53;3.63;;;23.20;79.80;;;;;;4919246;28;20317;-72
2023/07/17 09:27:49;;;;;;;11.47;4.27;;;23.40;80.40;;;;;;4917336;28;20222;-77
2023/07/17 09:30:20;;;;;;;4.05;3.65;;;23.70;77.90;;;;;;4912838;28;20697;-67
2023/07/17 09:32:47;;;;;;;6.28;3.72;;;23.90;80.00;;;;;;4923399;29;20221;-81
2023/07/17 09:35:13;;;;;;;4.20;3.80;;;24.10;75.60;;;;;;4941539;28;20234;-69
2023/07/17 09:37:41;;;;;;;10.02;4.45;;;24.20;72.60;;;;;;4917519;28;20206;-70
2023/07/17 09:40:08;;;;;;;5.78;4.07;;;24.50;70.60;;;;;;4918822;29;20253;-71
2023/07/17 09:42:34;;;;;;;4.75;3.75;;;24.70;70.70;;;;;;4916938;28;20202;-70
2023/07/17 09:45:01;;;;;;;6.20;4.00;;;24.70;69.90;;;;;;4982525;28;20281;-69
2023/07/17 09:47:27;;;;;;;7.78;3.63;;;24.50;71.10;;;;;;4932891;28;20234;-71
2023/07/17 09:49:54;;;;;;;4.75;3.38;;;24.80;68.80;;;;;;4923705;28;20631;-70
2023/07/17 09:52:19;;;;;;;6.70;4.55;;;24.80;68.80;;;;;;4919662;28;20739;-70
2023/07/17 09:54:49;;;;;;;9.57;3.17;;;24.90;68.20;;;;;;4923540;29;20199;-70
2023/07/17 09:57:35;;;;;;;5.25;3.95;;;25.00;69.10;;;;;;4918351;29;20211;-75
2023/07/17 10:00:14;;;;;;;6.18;3.97;;;25.00;67.40;;;;;;4924707;28;20204;-76
2023/07/17 10:02:45;;;;;;;5.32;4.20;;;24.90;68.50;;;;;;4918815;28;20206;-69
2023/07/17 10:05:11;;;;;;;8.90;4.32;;;24.90;69.30;;;;;;4936430;28;20284;-72
2023/07/17 10:07:38;;;;;;;8.02;3.50;;;24.90;68.40;;;;;;4921406;28;20689;-69
2023/07/17 10:10:05;;;;;;;5.38;4.05;;;25.10;68.10;;;;;;4925282;28;20920;-70
2023/07/17 10:12:32;;;;;;;5.43;4.03;;;25.30;69.40;;;;;;4921871;28;20914;-70
2023/07/17 10:14:59;;;;;;;7.22;3.88;;;25.40;64.70;;;;;;4916604;28;20936;-68
2023/07/17 10:17:36;;;;;;;3.85;3.13;;;25.30;66.50;;;;;;4935028;28;20756;-67
2023/07/17 10:20:07;;;;;;;6.43;3.53;;;25.30;63.70;;;;;;4920734;29;20267;-70
2023/07/17 10:22:43;;;;;;;6.68;3.45;;;25.40;63.60;;;;;;4918238;28;20200;-69
2023/07/17 10:25:18;;;;;;;9.43;3.55;;;25.50;63.30;;;;;;4917966;28;20630;-70
2023/07/17 10:27:46;;;;;;;6.28;3.58;;;25.60;63.10;;;;;;4918405;28;20714;-73
2023/07/17 10:30:23;;;;;;;5.78;3.30;;;25.50;65.80;;;;;;4919276;29;20210;-69
2023/07/17 10:33:10;;;;;;;4.88;4.28;;;25.80;64.50;;;;;;4920816;28;20242;-73
2023/07/17 10:35:55;;;;;;;8.85;3.80;;;25.60;66.00;;;;;;4923782;28;20214;-72
2023/07/17 10:38:25;;;;;;;7.63;4.05;;;25.40;65.10;;;;;;4924128;28;20211;-71
2023/07/17 10:41:04;;;;;;;8.05;3.63;;;25.20;66.20;;;;;;4913876;29;20252;-72
2023/07/17 10:43:33;;;;;;;8.18;3.08;;;25.20;62.90;;;;;;4919176;28;20344;-72
2023/07/17 10:45:59;;;;;;;6.78;3.67;;;25.20;62.70;;;;;;4914998;28;20292;-72
2023/07/17 10:48:26;;;;;;;5.20;3.45;;;25.40;62.70;;;;;;4918335;29;20712;-72
2023/07/17 10:50:53;;;;;;;7.70;3.45;;;25.40;63.20;;;;;;4917606;29;21337;-68
2023/07/17 10:53:20;;;;;;;3.25;2.95;;;25.70;61.80;;;;;;4918547;28;20192;-70
2023/07/17 10:55:46;;;;;;;6.57;2.97;;;25.90;60.90;;;;;;4917289;28;20199;-68
2023/07/17 10:58:12;;;;;;;5.45;2.97;;;25.90;58.40;;;;;;4917321;29;20213;-72
2023/07/17 11:00:42;;;;;;;6.22;2.90;;;26.00;58.00;;;;;;4919027;28;20223;-69
2023/07/17 11:03:09;;;;;;;10.68;3.58;;;26.10;59.30;;;;;;4917746;28;20215;-68
2023/07/17 11:05:39;;;;;;;5.38;3.47;;;25.80;61.90;;;;;;4916946;28;20312;-69
2023/07/17 11:08:06;;;;;;;3.80;3.33;;;25.80;63.30;;;;;;4915450;29;20212;-69
2023/07/17 11:10:32;;;;;;;4.93;3.15;;;25.60;62.40;;;;;;4919496;29;20204;-72
2023/07/17 11:13:02;;;;;;;5.97;3.70;;;25.40;64.10;;;;;;4916777;28;20315;-72
2023/07/17 11:15:31;;;;;;;5.50;3.20;;;25.60;63.90;;;;;;4915899;29;20289;-71
2023/07/17 11:17:58;;;;;;;8.40;3.53;;;25.80;63.50;;;;;;4923770;28;20255;-71
2023/07/17 11:20:24;;;;;;;6.85;3.30;;;26.00;60.50;;;;;;4917116;28;20229;-74
2023/07/17 11:22:49;;;;;;;6.20;3.13;;;26.00;60.60;;;;;;4941172;28;20662;-69
2023/07/17 11:25:15;;;;;;;4.18;3.00;;;26.00;59.80;;;;;;4925030;28;20274;-70
2023/07/17 11:27:41;;;;;;;7.40;3.33;;;25.70;60.10;;;;;;4924279;28;20252;-70
2023/07/17 11:30:17;;;;;;;4.22;3.10;;;26.00;59.00;;;;;;4920319;28;20611;-75
2023/07/17 11:32:43;;;;;;;7.20;3.13;;;26.50;58.30;;;;;;4926806;28;20286;-72
2023/07/17 11:35:08;;;;;;;3.00;2.65;;;26.80;57.90;;;;;;4923002;28;20616;-68
2023/07/17 11:37:37;;;;;;;4.68;2.92;;;26.90;56.10;;;;;;4925773;29;20297;-73
2023/07/17 11:40:09;;;;;;;6.60;3.15;;;26.90;57.70;;;;;;4918437;28;20684;-71
2023/07/17 11:43:07;;;;;;;3.72;2.53;;;27.10;55.20;;;;;;4925188;28;20201;-70
2023/07/17 11:45:33;;;;;;;5.15;2.90;;;27.00;54.10;;;;;;4940460;28;20723;-73
2023/07/17 11:47:58;;;;;;;5.80;2.25;;;26.90;55.30;;;;;;4926596;28;20248;-69
2023/07/17 11:50:26;;;;;;;3.58;2.50;;;27.00;52.90;;;;;;4925447;29;20668;-75
2023/07/17 11:53:10;;;;;;;7.63;4.38;;;26.90;52.90;;;;;;4924006;28;20202;-71
2023/07/17 11:55:37;;;;;;;3.13;2.63;;;26.90;53.10;;;;;;4923057;28;20255;-71
2023/07/17 11:58:22;;;;;;;5.18;2.95;;;26.70;53.40;;;;;;4914237;29;20211;-71
2023/07/17 12:00:50;;;;;;;5.65;3.08;;;27.00;53.60;;;;;;4920566;28;20253;-71
2023/07/17 12:03:16;;;;;;;5.63;2.55;;;26.60;54.00;;;;;;4926069;28;21087;-76
2023/07/17 12:05:42;;;;;;;7.88;3.90;;;26.70;55.70;;;;;;4919204;28;20723;-76
2023/07/17 12:08:07;;;;;;;6.30;3.03;;;26.00;66.40;;;;;;4918948;28;20224;-77
2023/07/17 12:10:34;;;;;;;5.57;3.08;;;24.50;81.10;;;;;;4931611;28;20259;-78
2023/07/17 12:13:00;;;;;;;5.57;3.28;;;22.70;83.30;;;;;;4908485;28;20314;-73
2023/07/17 12:15:26;;;;;;;7.50;2.90;;;22.80;73.80;;;;;;4913405;29;20295;-67
2023/07/17 12:17:52;;;;;;;3.10;2.50;;;22.00;91.80;;;;;;4925157;28;20580;-67
2023/07/17 12:20:20;;;;;;;3.00;2.60;;;22.40;77.00;;;;;;4928328;28;20326;-70
2023/07/17 12:22:49;;;;;;;6.97;3.10;;;22.10;86.80;;;;;;4921343;29;20204;-70
2023/07/17 12:25:14;;;;;;;5.60;2.75;;;22.10;92.30;;;;;;4924336;28;20293;-69
2023/07/17 12:27:41;;;;;;;4.07;2.78;;;21.50;90.40;;;;;;4931466;29;20776;-70
2023/07/17 12:30:08;;;;;;;5.38;2.65;;;21.60;94.10;;;;;;4926027;28;21098;-70
2023/07/17 12:32:33;;;;;;;3.20;2.47;;;22.90;73.90;;;;;;4928562;29;20202;-71
2023/07/17 12:34:59;;;;;;;3.50;2.28;;;23.60;72.40;;;;;;4925760;29;20267;-72
2023/07/17 12:37:24;;;;;;;3.95;2.88;;;24.70;61.30;;;;;;4932480;28;20716;-69
2023/07/17 12:39:50;;;;;;;3.13;2.30;;;25.40;60.80;;;;;;4926111;28;20206;-72
2023/07/17 12:42:17;;;;;;;3.38;2.53;;;25.10;60.30;;;;;;4926985;29;20670;-69